createdAt,value
2018-06-28T00:02:06.721Z,3.00
2018-06-28T00:04:34.377Z,2.70
2018-06-28T00:07:02.038Z,2.80
2018-06-28T00:09:29.582Z,2.80
2018-06-28T00:11:57.165Z,2.80
2018-06-28T00:14:24.921Z,3.07
2018-06-28T00:16:52.585Z,2.63
2018-06-28T00:19:20.173Z,2.57
2018-06-28T00:21:47.749Z,3.30
2018-06-28T00:24:15.339Z,2.83
2018-06-28T00:26:42.965Z,2.53
2018-06-28T00:29:10.526Z,2.87
2018-06-28T00:31:38.085Z,2.60
2018-06-28T00:34:05.710Z,3.17
2018-06-28T00:36:33.409Z,3.30
2018-06-28T00:39:01.172Z,3.00
2018-06-28T00:41:28.756Z,3.10
2018-06-28T00:43:56.299Z,3.23
2018-06-28T00:46:23.953Z,3.20
2018-06-28T00:48:51.537Z,3.03
2018-06-28T00:51:19.060Z,2.80
2018-06-28T00:53:46.624Z,3.47
2018-06-28T00:56:14.172Z,3.53
2018-06-28T00:58:41.746Z,3.20
2018-06-28T01:01:09.333Z,3.10
2018-06-28T01:03:36.943Z,3.20
2018-06-28T01:06:04.704Z,3.43
2018-06-28T01:08:32.339Z,3.20
2018-06-28T01:10:59.903Z,3.10
2018-06-28T01:13:27.451Z,2.80
2018-06-28T01:15:55.170Z,3.47
2018-06-28T01:18:22.834Z,2.60
2018-06-28T01:20:50.598Z,3.27
2018-06-28T01:23:18.238Z,3.30
2018-06-28T01:25:45.850Z,3.10
2018-06-28T01:28:13.476Z,3.60
2018-06-28T01:30:41.033Z,3.73
2018-06-28T01:33:08.619Z,3.60
2018-06-28T01:35:36.247Z,3.57
2018-06-28T01:38:03.825Z,3.73
2018-06-28T01:40:31.382Z,4.27
2018-06-28T01:43:10.409Z,3.83
2018-06-28T01:45:37.952Z,3.77
2018-06-28T01:48:05.526Z,4.53
2018-06-28T01:50:33.289Z,4.27
2018-06-28T01:53:01.104Z,4.63
2018-06-28T01:55:28.681Z,4.30
2018-06-28T01:57:56.211Z,4.93
2018-06-28T02:00:23.837Z,4.70
2018-06-28T02:02:51.451Z,4.53
2018-06-28T02:05:19.151Z,4.67
2018-06-28T02:07:46.710Z,4.57
2018-06-28T02:10:14.295Z,4.70
2018-06-28T02:12:41.894Z,5.43
2018-06-28T02:15:09.522Z,5.10
2018-06-28T02:17:37.073Z,5.37
2018-06-28T02:20:04.709Z,5.57
2018-06-28T02:22:32.245Z,5.30
2018-06-28T02:24:59.843Z,5.10
2018-06-28T02:27:29.959Z,4.90
2018-06-28T02:29:57.533Z,5.00
2018-06-28T02:32:25.087Z,4.90
2018-06-28T02:34:52.662Z,5.60
2018-06-28T02:37:20.225Z,5.97
2018-06-28T02:39:47.861Z,6.80
2018-06-28T02:42:15.400Z,5.93
2018-06-28T02:44:42.966Z,5.97
2018-06-28T02:47:10.541Z,5.23
2018-06-28T02:49:38.110Z,6.17
2018-06-28T02:52:05.654Z,6.20
2018-06-28T02:54:33.253Z,6.00
2018-06-28T02:57:00.901Z,6.60
2018-06-28T02:59:28.484Z,6.70
2018-06-28T03:01:56.087Z,6.10
2018-06-28T03:04:23.687Z,6.40
2018-06-28T03:06:51.238Z,6.93
2018-06-28T03:09:18.851Z,6.23
2018-06-28T03:11:46.405Z,6.70
2018-06-28T03:14:13.981Z,6.67
2018-06-28T03:16:41.533Z,7.13
2018-06-28T03:19:09.094Z,6.30
2018-06-28T03:21:36.645Z,6.37
2018-06-28T03:24:04.233Z,5.73
2018-06-28T03:26:31.877Z,5.63
2018-06-28T03:28:59.414Z,6.63
2018-06-28T03:31:26.958Z,6.57
2018-06-28T03:33:54.514Z,6.00
2018-06-28T03:36:22.080Z,6.50
2018-06-28T03:38:49.619Z,6.20
2018-06-28T03:41:17.329Z,6.37
2018-06-28T03:43:44.894Z,5.97
2018-06-28T03:46:12.462Z,6.70
2018-06-28T03:48:40.003Z,7.27
2018-06-28T03:51:07.577Z,6.47
2018-06-28T03:53:35.226Z,6.77
2018-06-28T03:56:02.982Z,6.70
2018-06-28T03:58:30.520Z,6.67
2018-06-28T04:00:58.107Z,6.27
2018-06-28T04:03:25.635Z,6.70
2018-06-28T04:05:53.239Z,6.80
2018-06-28T04:08:20.785Z,6.57
2018-06-28T04:10:48.382Z,6.37
2018-06-28T04:13:15.917Z,5.83
2018-06-28T04:15:43.501Z,6.50
2018-06-28T04:18:11.033Z,6.43
2018-06-28T04:20:38.627Z,6.33
2018-06-28T04:23:06.158Z,6.37
2018-06-28T04:25:33.800Z,6.57
2018-06-28T04:28:01.355Z,7.00
2018-06-28T04:30:29.021Z,6.77
2018-06-28T04:32:56.569Z,7.00
2018-06-28T04:35:24.240Z,5.73
2018-06-28T04:37:51.791Z,6.70
2018-06-28T04:40:19.378Z,6.60
2018-06-28T04:42:46.909Z,6.53
2018-06-28T04:45:14.474Z,6.67
2018-06-28T04:47:41.997Z,6.50
2018-06-28T04:50:09.561Z,6.40
2018-06-28T04:52:37.108Z,6.23
2018-06-28T04:55:04.705Z,5.83
2018-06-28T04:57:32.241Z,5.63
2018-06-28T04:59:59.841Z,6.20
2018-06-28T05:02:27.492Z,6.20
2018-06-28T05:04:55.048Z,6.53
2018-06-28T05:07:22.684Z,6.17
2018-06-28T05:09:50.270Z,6.30
2018-06-28T05:12:17.846Z,6.20
2018-06-28T05:14:45.387Z,6.13
2018-06-28T05:17:13.020Z,6.40
2018-06-28T05:19:40.484Z,5.70
2018-06-28T05:22:08.075Z,6.40
2018-06-28T05:24:35.733Z,6.40
2018-06-28T05:27:03.393Z,6.70
2018-06-28T05:29:30.949Z,5.93
2018-06-28T05:31:58.562Z,5.73
2018-06-28T05:34:26.167Z,6.20
2018-06-28T05:36:53.740Z,5.80
2018-06-28T05:39:21.304Z,5.90
2018-06-28T05:41:48.889Z,6.73
2018-06-28T05:44:16.454Z,5.67
2018-06-28T05:46:44.046Z,6.33
2018-06-28T05:49:11.734Z,5.40
2018-06-28T05:51:39.386Z,5.33
2018-06-28T05:54:06.964Z,5.30
2018-06-28T05:56:34.641Z,6.03
2018-06-28T05:59:02.245Z,5.50
2018-06-28T06:01:29.939Z,5.10
2018-06-28T06:03:57.489Z,4.87
2018-06-28T06:06:25.105Z,5.50
2018-06-28T06:08:52.704Z,5.27
2018-06-28T06:11:20.979Z,5.13
2018-06-28T06:13:49.259Z,5.30
2018-06-28T06:16:17.330Z,5.90
2018-06-28T06:18:44.935Z,4.77
2018-06-28T06:21:12.533Z,5.57
2018-06-28T06:23:40.082Z,4.60
2018-06-28T06:26:07.626Z,4.67
2018-06-28T06:28:35.160Z,4.60
2018-06-28T06:31:03.182Z,5.20
2018-06-28T06:33:30.748Z,4.73
2018-06-28T06:35:58.297Z,5.03
2018-06-28T06:38:25.878Z,5.20
2018-06-28T06:40:53.535Z,4.47
2018-06-28T06:43:21.134Z,4.70
2018-06-28T06:45:48.685Z,4.40
2018-06-28T06:48:16.266Z,4.57
2018-06-28T06:50:43.838Z,4.60
2018-06-28T06:53:11.436Z,4.27
2018-06-28T06:55:38.994Z,4.90
2018-06-28T06:58:06.714Z,4.70
2018-06-28T07:00:34.273Z,5.13
2018-06-28T07:03:01.851Z,4.00
2018-06-28T07:05:29.497Z,4.13
2018-06-28T07:07:57.001Z,4.57
2018-06-28T07:10:24.667Z,4.43
2018-06-28T07:12:52.218Z,4.40
2018-06-28T07:15:19.788Z,4.60
2018-06-28T07:17:47.484Z,4.80
2018-06-28T07:20:15.183Z,4.50
2018-06-28T07:22:42.813Z,4.57
2018-06-28T07:25:10.310Z,4.20
2018-06-28T07:27:37.974Z,4.33
2018-06-28T07:30:06.057Z,4.20
2018-06-28T07:32:33.621Z,4.10
2018-06-28T07:35:01.178Z,3.90
2018-06-28T07:37:28.744Z,4.30
2018-06-28T07:39:56.288Z,4.20
2018-06-28T07:42:23.869Z,3.90
2018-06-28T07:44:51.397Z,4.30
2018-06-28T07:47:19.160Z,3.63
2018-06-28T07:49:46.702Z,3.57
2018-06-28T07:52:14.283Z,3.90
2018-06-28T07:54:41.847Z,3.73
2018-06-28T07:57:10.167Z,3.57
2018-06-28T07:59:37.757Z,3.40
2018-06-28T08:02:05.337Z,3.90
2018-06-28T08:04:33.017Z,3.50
2018-06-28T08:07:00.639Z,3.63
2018-06-28T08:09:28.497Z,3.73
2018-06-28T08:11:56.102Z,3.47
2018-06-28T08:14:23.641Z,3.40
2018-06-28T08:16:51.221Z,3.50
2018-06-28T08:19:18.790Z,3.57
2018-06-28T08:21:46.321Z,3.33
2018-06-28T08:24:13.912Z,3.63
2018-06-28T08:26:41.448Z,3.80
2018-06-28T08:29:09.098Z,3.20
2018-06-28T08:31:36.634Z,3.20
2018-06-28T08:34:04.436Z,3.47
2018-06-28T08:36:31.992Z,3.80
2018-06-28T08:38:59.722Z,3.30
2018-06-28T08:41:27.261Z,3.20
2018-06-28T08:43:54.837Z,3.40
2018-06-28T08:46:22.399Z,3.07
2018-06-28T08:48:50.081Z,3.57
2018-06-28T08:51:17.672Z,3.63
2018-06-28T08:53:45.228Z,3.53
2018-06-28T08:56:12.753Z,3.23
2018-06-28T08:58:40.321Z,3.60
2018-06-28T09:01:07.905Z,3.13
2018-06-28T09:03:35.471Z,3.17
2018-06-28T09:06:03.047Z,2.97
2018-06-28T09:08:30.773Z,2.80
2018-06-28T09:10:58.364Z,3.47
2018-06-28T09:13:25.900Z,3.30
2018-06-28T09:15:53.603Z,2.93
2018-06-28T09:18:21.245Z,2.97
2018-06-28T09:20:48.859Z,3.20
2018-06-28T09:23:16.525Z,3.43
2018-06-28T09:25:44.102Z,3.20
2018-06-28T09:28:11.944Z,3.20
2018-06-28T09:30:39.608Z,3.50
2018-06-28T09:33:07.986Z,3.20
2018-06-28T09:35:35.569Z,3.30
2018-06-28T09:38:03.185Z,3.10
2018-06-28T09:40:30.771Z,3.13
2018-06-28T09:42:58.366Z,2.60
2018-06-28T09:45:25.912Z,2.80
2018-06-28T09:47:53.466Z,2.80
2018-06-28T09:50:21.047Z,3.67
2018-06-28T09:52:48.606Z,3.17
2018-06-28T09:55:16.631Z,2.87
2018-06-28T09:57:45.118Z,3.47
2018-06-28T10:00:17.951Z,3.17
2018-06-28T10:02:45.556Z,3.40
2018-06-28T10:05:13.217Z,4.87
2018-06-28T10:07:40.780Z,3.70
2018-06-28T10:10:08.365Z,3.53
2018-06-28T10:12:35.937Z,2.60
2018-06-28T10:15:03.518Z,3.37
2018-06-28T10:17:31.051Z,3.00
2018-06-28T10:19:58.606Z,2.97
2018-06-28T10:22:26.155Z,2.90
2018-06-28T10:24:53.712Z,2.50
2018-06-28T10:27:21.288Z,2.70
2018-06-28T10:29:48.873Z,3.00
2018-06-28T10:32:16.445Z,2.57
2018-06-28T10:34:43.992Z,2.80
2018-06-28T10:37:11.537Z,3.40
2018-06-28T10:39:39.129Z,2.63
2018-06-28T10:42:07.073Z,3.33
2018-06-28T10:44:34.620Z,2.97
2018-06-28T10:47:02.195Z,2.97
2018-06-28T10:49:29.776Z,2.97
2018-06-28T10:51:57.331Z,2.80
2018-06-28T10:54:24.970Z,2.50
2018-06-28T10:56:52.540Z,3.23
2018-06-28T10:59:20.085Z,3.17
2018-06-28T11:01:47.762Z,2.87
2018-06-28T11:04:15.324Z,2.63
2018-06-28T11:06:42.893Z,2.77
2018-06-28T11:09:11.309Z,2.73
2018-06-28T11:11:39.591Z,2.60
2018-06-28T11:14:07.150Z,2.80
2018-06-28T11:16:34.728Z,2.90
2018-06-28T11:19:02.301Z,3.37
2018-06-28T11:21:30.308Z,3.40
2018-06-28T11:23:57.856Z,3.10
2018-06-28T11:26:25.548Z,3.30
2018-06-28T11:28:53.090Z,3.47
2018-06-28T11:31:20.773Z,2.80
2018-06-28T11:33:48.326Z,3.23
2018-06-28T11:36:16.046Z,3.10
2018-06-28T11:38:43.603Z,3.30
2018-06-28T11:41:11.237Z,3.27
2018-06-28T11:43:38.784Z,3.03
2018-06-28T11:46:06.392Z,3.70
2018-06-28T11:48:33.980Z,3.40
2018-06-28T11:51:01.549Z,3.10
2018-06-28T11:53:29.077Z,3.70
2018-06-28T11:55:56.641Z,3.60
2018-06-28T11:58:24.182Z,3.43
2018-06-28T12:00:51.755Z,3.83
2018-06-28T12:03:19.321Z,3.73
2018-06-28T12:05:46.899Z,3.83
2018-06-28T12:08:14.423Z,3.40
2018-06-28T12:10:42.201Z,4.00
2018-06-28T12:13:09.720Z,3.80
2018-06-28T12:15:37.297Z,3.47
2018-06-28T12:18:04.981Z,4.13
2018-06-28T12:20:32.557Z,2.97
2018-06-28T12:23:00.119Z,2.97
2018-06-28T12:25:27.760Z,2.87
2018-06-28T12:27:55.348Z,3.07
2018-06-28T12:30:23.156Z,2.90
2018-06-28T12:32:50.804Z,2.60
2018-06-28T12:35:18.386Z,2.90
2018-06-28T12:37:45.938Z,2.77
2018-06-28T12:40:13.504Z,3.00
2018-06-28T12:42:41.059Z,3.00
2018-06-28T12:45:08.601Z,2.60
2018-06-28T12:47:49.026Z,2.83
2018-06-28T12:50:16.773Z,3.00
2018-06-28T12:52:47.025Z,2.30
2018-06-28T12:55:15.890Z,3.13
2018-06-28T12:57:43.671Z,2.57
2018-06-28T13:00:12.734Z,2.67
2018-06-28T13:02:41.054Z,2.60
2018-06-28T13:05:08.813Z,2.93
2018-06-28T13:07:36.437Z,2.60
2018-06-28T13:10:05.388Z,3.10
2018-06-28T13:12:32.992Z,2.90
2018-06-28T13:15:00.546Z,3.20
2018-06-28T13:17:28.128Z,3.07
2018-06-28T13:19:55.703Z,3.03
2018-06-28T13:22:23.296Z,2.77
2018-06-28T13:24:51.106Z,3.47
2018-06-28T13:27:18.694Z,2.80
2018-06-28T13:29:46.308Z,2.90
2018-06-28T13:32:13.888Z,3.47
2018-06-28T13:34:41.425Z,2.53
2018-06-28T13:37:09.010Z,2.97
2018-06-28T13:39:36.893Z,2.87
2018-06-28T13:42:04.679Z,3.50
2018-06-28T13:44:32.204Z,3.27
2018-06-28T13:46:59.813Z,2.87
2018-06-28T13:49:27.346Z,3.00
2018-06-28T13:51:54.925Z,2.87
2018-06-28T13:54:22.481Z,3.30
2018-06-28T13:56:50.174Z,3.70
2018-06-28T13:59:17.767Z,3.07
2018-06-28T14:01:45.324Z,2.90
2018-06-28T14:04:12.873Z,2.73
2018-06-28T14:06:40.468Z,2.80
2018-06-28T14:09:10.325Z,2.83
2018-06-28T14:11:37.984Z,2.63
2018-06-28T14:14:05.651Z,2.60
2018-06-28T14:16:33.266Z,2.53
2018-06-28T14:19:00.858Z,2.80
2018-06-28T14:21:28.529Z,3.30
2018-06-28T14:23:56.189Z,2.80
2018-06-28T14:26:23.738Z,3.27
2018-06-28T14:28:51.438Z,2.90
2018-06-28T14:31:19.058Z,2.30
2018-06-28T14:33:46.610Z,2.63
2018-06-28T14:36:14.170Z,2.80
2018-06-28T14:38:41.742Z,2.57
2018-06-28T14:41:09.817Z,2.37
2018-06-28T14:43:37.384Z,2.50
2018-06-28T14:46:05.446Z,2.23
2018-06-28T14:48:33.343Z,2.20
2018-06-28T14:51:00.975Z,2.37
2018-06-28T14:53:28.541Z,2.07
2018-06-28T14:55:56.145Z,1.70
2018-06-28T14:58:23.731Z,2.00
2018-06-28T15:00:51.278Z,1.80
2018-06-28T15:03:18.845Z,1.90
2018-06-28T15:05:46.389Z,1.57
2018-06-28T15:08:13.959Z,1.90
2018-06-28T15:10:41.506Z,1.70
2018-06-28T15:13:09.128Z,1.60
2018-06-28T15:15:36.803Z,1.10
2018-06-28T15:18:04.518Z,1.70
2018-06-28T15:20:32.072Z,1.50
2018-06-28T15:22:59.643Z,1.30
2018-06-28T15:25:27.180Z,1.20
2018-06-28T15:27:54.746Z,1.40
2018-06-28T15:30:22.272Z,1.33
2018-06-28T15:32:49.814Z,1.30
2018-06-28T15:35:17.748Z,1.23
2018-06-28T15:37:45.325Z,1.97
2018-06-28T15:40:12.862Z,1.30
2018-06-28T15:42:40.433Z,1.33
2018-06-28T15:45:08.051Z,1.20
2018-06-28T15:47:35.660Z,1.40
2018-06-28T15:50:03.297Z,1.20
2018-06-28T15:52:31.277Z,1.40
2018-06-28T15:54:59.077Z,1.10
2018-06-28T15:57:26.659Z,1.60
2018-06-28T15:59:54.238Z,0.90
2018-06-28T16:02:21.916Z,1.00
2018-06-28T16:04:49.506Z,1.10
2018-06-28T16:07:17.076Z,1.57
2018-06-28T16:09:44.642Z,1.17
2018-06-28T16:12:12.160Z,0.87
2018-06-28T16:14:39.741Z,0.97
2018-06-28T16:17:07.350Z,1.00
2018-06-28T16:19:34.897Z,0.90
2018-06-28T16:22:02.554Z,0.90
2018-06-28T16:24:30.121Z,1.30
2018-06-28T16:26:57.653Z,1.00
2018-06-28T16:29:25.277Z,0.87
2018-06-28T16:31:52.871Z,0.90
2018-06-28T16:34:20.416Z,0.90
2018-06-28T16:36:47.998Z,0.80
2018-06-28T16:39:15.560Z,1.07
2018-06-28T16:41:43.170Z,0.90
2018-06-28T16:44:10.756Z,0.80
2018-06-28T16:46:38.465Z,0.83
2018-06-28T16:49:06.067Z,0.80
2018-06-28T16:51:33.692Z,0.93
2018-06-28T16:54:01.374Z,0.90
2018-06-28T16:56:29.033Z,1.20
2018-06-28T16:58:56.618Z,0.90
2018-06-28T17:01:24.157Z,0.70
2018-06-28T17:03:51.728Z,0.70
2018-06-28T17:06:19.278Z,0.90
2018-06-28T17:08:46.896Z,0.80
2018-06-28T17:11:14.463Z,0.73
2018-06-28T17:13:42.050Z,1.00
2018-06-28T17:16:09.587Z,0.90
2018-06-28T17:18:37.125Z,0.70
2018-06-28T17:21:04.743Z,0.80
2018-06-28T17:23:32.269Z,0.73
2018-06-28T17:25:59.853Z,0.77
2018-06-28T17:28:27.405Z,0.60
2018-06-28T17:30:54.994Z,0.63
2018-06-28T17:33:22.549Z,0.70
2018-06-28T17:35:50.133Z,0.50
2018-06-28T17:38:17.676Z,0.60
2018-06-28T17:40:45.267Z,0.70
2018-06-28T17:43:12.831Z,0.60
2018-06-28T17:45:40.426Z,0.60
2018-06-28T17:48:07.982Z,0.67
2018-06-28T17:50:35.587Z,0.70
2018-06-28T17:53:03.164Z,0.70
2018-06-28T17:55:30.765Z,0.70
2018-06-28T17:57:58.325Z,0.80
2018-06-28T18:00:26.180Z,1.30
2018-06-28T18:02:53.480Z,1.00
2018-06-28T18:05:21.040Z,1.17
2018-06-28T18:07:48.572Z,1.30
2018-06-28T18:10:16.145Z,1.60
2018-06-28T18:12:43.696Z,1.40
2018-06-28T18:15:11.249Z,1.30
2018-06-28T18:17:38.957Z,1.10
2018-06-28T18:20:06.561Z,1.27
2018-06-28T18:22:34.117Z,1.10
2018-06-28T18:25:01.703Z,1.60
2018-06-28T18:27:29.242Z,1.63
2018-06-28T18:29:56.882Z,1.47
2018-06-28T18:32:24.442Z,1.80
2018-06-28T18:34:52.025Z,1.47
2018-06-28T18:37:19.581Z,2.10
2018-06-28T18:39:47.191Z,1.60
2018-06-28T18:42:14.784Z,2.13
2018-06-28T18:44:42.574Z,1.80
2018-06-28T18:47:10.111Z,1.70
2018-06-28T18:49:37.649Z,1.53
2018-06-28T18:52:06.207Z,1.47
2018-06-28T18:54:33.767Z,1.80
2018-06-28T18:57:01.464Z,1.90
2018-06-28T18:59:28.996Z,1.77
2018-06-28T19:01:56.654Z,1.93
2018-06-28T19:04:24.119Z,1.80
2018-06-28T19:06:51.756Z,1.90
2018-06-28T19:09:19.308Z,2.00
2018-06-28T19:11:46.933Z,2.40
2018-06-28T19:14:20.298Z,3.00
2018-06-28T19:16:53.559Z,2.00
2018-06-28T19:19:21.577Z,1.90
2018-06-28T19:21:55.278Z,2.50
2018-06-28T19:24:23.217Z,2.27
2018-06-28T19:26:50.983Z,2.43
2018-06-28T19:29:24.165Z,2.57
2018-06-28T19:31:57.444Z,2.23
2018-06-28T19:34:25.049Z,2.10
2018-06-28T19:36:52.626Z,2.27
2018-06-28T19:39:25.947Z,2.20
2018-06-28T19:41:59.608Z,2.50
2018-06-28T19:44:27.490Z,2.17
2018-06-28T19:46:55.109Z,2.30
2018-06-28T19:49:28.458Z,2.43
2018-06-28T19:52:01.776Z,2.30
2018-06-28T19:54:29.423Z,2.57
2018-06-28T19:56:56.978Z,3.57
2018-06-28T19:59:24.497Z,3.53
2018-06-28T20:01:57.992Z,2.57
2018-06-28T20:04:31.309Z,3.37
2018-06-28T20:06:58.893Z,2.20
2018-06-28T20:09:26.494Z,2.77
2018-06-28T20:11:54.176Z,3.33
2018-06-28T20:14:27.522Z,3.20
2018-06-28T20:17:00.845Z,2.87
2018-06-28T20:19:33.971Z,2.97
2018-06-28T20:22:01.558Z,3.20
2018-06-28T20:24:29.147Z,2.77
2018-06-28T20:27:02.505Z,3.00
2018-06-28T20:29:35.669Z,2.33
2018-06-28T20:32:08.932Z,2.60
2018-06-28T20:34:36.537Z,2.30
2018-06-28T20:37:04.121Z,2.53
2018-06-28T20:39:31.732Z,2.50
2018-06-28T20:41:59.393Z,2.30
2018-06-28T20:44:26.936Z,2.30
2018-06-28T20:46:54.436Z,2.60
2018-06-28T20:49:21.968Z,2.40
2018-06-28T20:51:49.496Z,2.77
2018-06-28T20:54:16.965Z,2.37
2018-06-28T20:56:44.571Z,2.60
2018-06-28T20:59:12.107Z,2.70
2018-06-28T21:01:39.654Z,2.50
2018-06-28T21:04:07.192Z,2.30
2018-06-28T21:06:34.734Z,2.50
2018-06-28T21:09:02.405Z,2.80
2018-06-28T21:11:30.041Z,2.63
2018-06-28T21:13:57.648Z,2.77
2018-06-28T21:16:25.356Z,2.80
2018-06-28T21:18:52.865Z,2.50
2018-06-28T21:21:20.488Z,3.10
2018-06-28T21:23:51.137Z,2.60
2018-06-28T21:26:18.705Z,2.60
2018-06-28T21:28:46.182Z,3.00
2018-06-28T21:31:13.714Z,2.97
2018-06-28T21:33:41.271Z,2.50
2018-06-28T21:36:08.865Z,2.53
2018-06-28T21:38:36.461Z,2.87
2018-06-28T21:41:04.213Z,2.80
2018-06-28T21:43:31.830Z,2.83
2018-06-28T21:45:59.349Z,2.70
2018-06-28T21:48:26.904Z,2.40
2018-06-28T21:50:54.628Z,2.40
2018-06-28T21:53:22.153Z,2.67
2018-06-28T21:55:49.817Z,2.50
2018-06-28T21:58:17.324Z,2.60
2018-06-28T22:00:45.039Z,4.37
2018-06-28T22:03:12.525Z,4.27
2018-06-28T22:05:40.109Z,3.00
2018-06-28T22:08:07.810Z,2.63
2018-06-28T22:10:35.307Z,2.50
2018-06-28T22:13:02.889Z,2.27
2018-06-28T22:15:31.230Z,2.47
2018-06-28T22:18:00.115Z,3.10
2018-06-28T22:20:28.547Z,2.30
2018-06-28T22:22:56.285Z,2.80
2018-06-28T22:25:25.367Z,2.90
2018-06-28T22:27:52.917Z,2.53
2018-06-28T22:30:20.921Z,2.93
2018-06-28T22:32:48.467Z,2.70
2018-06-28T22:35:16.027Z,2.70
2018-06-28T22:37:44.340Z,2.73
2018-06-28T22:40:11.972Z,2.50
2018-06-28T22:42:39.540Z,2.50
2018-06-28T22:45:07.693Z,2.70
2018-06-28T22:47:35.217Z,2.60
2018-06-28T22:50:03.165Z,2.80
2018-06-28T22:52:30.709Z,3.00
2018-06-28T22:54:58.250Z,2.87
2018-06-28T22:57:25.887Z,2.60
2018-06-28T22:59:54.019Z,2.43
2018-06-28T23:02:21.594Z,2.63
2018-06-28T23:04:49.178Z,3.00
2018-06-28T23:07:16.793Z,2.80
2018-06-28T23:09:44.676Z,2.67
2018-06-28T23:12:12.264Z,2.90
2018-06-28T23:14:39.847Z,2.90
2018-06-28T23:17:07.875Z,2.97
2018-06-28T23:19:35.418Z,2.77
2018-06-28T23:22:03.054Z,3.20
2018-06-28T23:24:30.980Z,2.80
2018-06-28T23:26:58.626Z,2.83
2018-06-28T23:29:26.352Z,2.67
2018-06-28T23:31:54.068Z,3.00
2018-06-28T23:34:21.743Z,2.97
2018-06-28T23:36:49.301Z,3.07
2018-06-28T23:39:16.908Z,2.53
2018-06-28T23:41:44.489Z,3.00
2018-06-28T23:44:12.063Z,2.70
2018-06-28T23:46:39.711Z,3.17
2018-06-28T23:49:14.197Z,2.90
2018-06-28T23:51:41.860Z,3.20
2018-06-28T23:54:09.470Z,2.83
2018-06-28T23:56:37.013Z,2.77
2018-06-28T23:59:04.625Z,2.87
